Coxs Bazar Airport


Codes: VGCB/CXB
Name: Coxs Bazar Airport
City: Coxs Bazar
Country: Bangladesh
Elevation: 12 ft.
Wikipedia:

Photos at Coxs Bazar Airport


   Photos courtesy of SpottingLog. You can add your own sightings and photos by signing up for a free trial today.



No photos found.

Weather at Coxs Bazar Airport


Time (UTC)DescriptionTempratureWindCloud coverageVisibilityPressureHumidity
23-May-2024 21:00Clear Sky27°C7 mph, E2%10000m1003hPa85%
24-May-2024 00:00Clear Sky27°C4 mph, E4%10000m1003hPa83%
24-May-2024 03:00Clear Sky32°C4 mph, N5%10000m1003hPa58%
24-May-2024 06:00Clear Sky33°C16 mph, W3%10000m1001hPa56%
24-May-2024 09:00Broken Clouds32°C13 mph, W69%10000m999hPa61%
24-May-2024 12:00Scattered Clouds31°C9 mph, S49%10000m999hPa70%
24-May-2024 15:00Broken Clouds30°C9 mph, SE80%10000m1001hPa76%
24-May-2024 18:00Scattered Clouds29°C11 mph, SE40%10000m1001hPa79%
24-May-2024 21:00Few Clouds28°C11 mph, SE14%10000m1000hPa82%
25-May-2024 00:00Broken Clouds29°C11 mph, SE56%10000m1000hPa78%
25-May-2024 03:00Overcast Clouds31°C11 mph, SE95%10000m1001hPa65%
25-May-2024 06:00Overcast Clouds35°C11 mph, S95%10000m999hPa50%
25-May-2024 09:00Overcast Clouds33°C25 mph, S100%10000m998hPa60%
25-May-2024 12:00Light Rain31°C22 mph, SE100%10000m999hPa69%
25-May-2024 15:00Overcast Clouds30°C18 mph, SE100%10000m1001hPa66%
25-May-2024 18:00Overcast Clouds30°C16 mph, SE100%10000m1001hPa67%
25-May-2024 21:00Overcast Clouds29°C18 mph, SE100%10000m1000hPa70%
26-May-2024 00:00Moderate Rain27°C16 mph, SE100%9747m1001hPa88%
26-May-2024 03:00Light Rain30°C22 mph, SE99%10000m1001hPa72%
26-May-2024 06:00Overcast Clouds33°C22 mph, SE98%10000m1002hPa59%
26-May-2024 09:00Light Rain32°C22 mph, SE100%10000m1001hPa66%
26-May-2024 12:00Light Rain29°C22 mph, SE100%10000m1002hPa81%
26-May-2024 15:00Light Rain27°C20 mph, SE100%10000m1004hPa87%
26-May-2024 18:00Overcast Clouds27°C18 mph, SE100%10000m1003hPa85%
26-May-2024 21:00Light Rain27°C18 mph, SE100%10000m1002hPa84%
27-May-2024 00:00Light Rain28°C18 mph, SE100%10000m1002hPa81%
27-May-2024 03:00Light Rain32°C22 mph, SE100%10000m1003hPa66%
27-May-2024 06:00Overcast Clouds33°C25 mph, S93%10000m1002hPa64%
27-May-2024 09:00Light Rain32°C22 mph, S93%10000m1000hPa68%
27-May-2024 12:00Light Rain30°C18 mph, S77%10000m1001hPa77%
27-May-2024 15:00Broken Clouds29°C16 mph, SE63%10000m1002hPa87%
27-May-2024 18:00Light Rain28°C18 mph, SE79%10000m1001hPa89%
27-May-2024 21:00Light Rain28°C16 mph, SE100%10000m1000hPa88%
28-May-2024 00:00Light Rain28°C18 mph, SE100%10000m1000hPa80%
28-May-2024 03:00Light Rain31°C22 mph, SE100%10000m1001hPa70%
28-May-2024 06:00Overcast Clouds33°C25 mph, S91%10000m1000hPa64%
28-May-2024 09:00Few Clouds33°C25 mph, S17%10000m998hPa67%
28-May-2024 12:00Few Clouds31°C20 mph, S14%10000m998hPa77%
28-May-2024 15:00Overcast Clouds30°C20 mph, SE100%10000m1000hPa81%
28-May-2024 18:00Light Rain29°C20 mph, SE100%10000m999hPa82%